sensor_id;sensor_type;location;lat;lon;timestamp;pressure;altitude;pressure_sealevel;temperature;humidity
63663;BME280;49815;51.618;0.336;2022-10-31T00:00:19;101000.48;;;12.31;56.17
63663;BME280;49815;51.618;0.336;2022-10-31T00:02:45;101000.11;;;12.49;56.05
63663;BME280;49815;51.618;0.336;2022-10-31T00:05:10;100999.90;;;12.27;56.39
63663;BME280;49815;51.618;0.336;2022-10-31T00:07:36;101003.34;;;12.58;56.28
63663;BME280;49815;51.618;0.336;2022-10-31T00:10:02;101005.10;;;12.27;56.07
63663;BME280;49815;51.618;0.336;2022-10-31T00:12:26;101008.71;;;12.41;56.21
63663;BME280;49815;51.618;0.336;2022-10-31T00:14:52;101007.29;;;12.23;56.50
63663;BME280;49815;51.618;0.336;2022-10-31T00:17:17;101005.53;;;12.35;56.22
63663;BME280;49815;51.618;0.336;2022-10-31T00:19:42;101003.82;;;12.20;56.67
63663;BME280;49815;51.618;0.336;2022-10-31T00:22:08;101006.64;;;12.40;56.54
63663;BME280;49815;51.618;0.336;2022-10-31T00:24:33;101005.36;;;12.49;56.24
63663;BME280;49815;51.618;0.336;2022-10-31T00:26:59;101005.89;;;11.91;57.08
63663;BME280;49815;51.618;0.336;2022-10-31T00:29:24;101003.15;;;12.16;56.32
63663;BME280;49815;51.618;0.336;2022-10-31T00:31:49;101004.10;;;12.51;56.01
63663;BME280;49815;51.618;0.336;2022-10-31T00:34:15;101001.12;;;12.11;55.36
63663;BME280;49815;51.618;0.336;2022-10-31T00:36:40;101002.96;;;12.42;55.17
63663;BME280;49815;51.618;0.336;2022-10-31T00:39:05;100998.67;;;12.20;55.21
63663;BME280;49815;51.618;0.336;2022-10-31T00:41:31;101000.12;;;12.83;54.98
63663;BME280;49815;51.618;0.336;2022-10-31T00:43:56;100997.17;;;12.25;55.42
63663;BME280;49815;51.618;0.336;2022-10-31T00:46:23;100994.57;;;12.34;56.09
63663;BME280;49815;51.618;0.336;2022-10-31T00:48:47;100993.71;;;12.43;55.46
63663;BME280;49815;51.618;0.336;2022-10-31T00:51:13;100989.84;;;12.48;55.40
63663;BME280;49815;51.618;0.336;2022-10-31T00:53:38;100991.91;;;12.21;54.94
63663;BME280;49815;51.618;0.336;2022-10-31T00:56:04;100992.49;;;12.16;55.35
63663;BME280;49815;51.618;0.336;2022-10-31T00:58:29;100992.33;;;12.26;55.70
63663;BME280;49815;51.618;0.336;2022-10-31T01:00:54;100987.40;;;12.24;56.17
63663;BME280;49815;51.618;0.336;2022-10-31T01:03:19;100989.95;;;12.29;55.91
63663;BME280;49815;51.618;0.336;2022-10-31T01:05:45;100991.35;;;12.57;56.34
63663;BME280;49815;51.618;0.336;2022-10-31T01:08:10;100994.13;;;12.11;56.88
63663;BME280;49815;51.618;0.336;2022-10-31T01:10:35;100991.29;;;12.42;57.12
63663;BME280;49815;51.618;0.336;2022-10-31T01:13:01;100990.53;;;12.33;56.88
63663;BME280;49815;51.618;0.336;2022-10-31T01:15:26;100990.09;;;12.18;57.20
63663;BME280;49815;51.618;0.336;2022-10-31T01:17:51;100984.88;;;12.42;56.97
63663;BME280;49815;51.618;0.336;2022-10-31T01:20:17;100987.70;;;11.84;57.77
63663;BME280;49815;51.618;0.336;2022-10-31T01:22:42;100984.46;;;11.80;58.85
63663;BME280;49815;51.618;0.336;2022-10-31T01:25:09;100984.47;;;11.95;58.60
63663;BME280;49815;51.618;0.336;2022-10-31T01:27:32;100987.48;;;12.16;58.34
63663;BME280;49815;51.618;0.336;2022-10-31T01:29:58;100985.74;;;12.12;58.36
63663;BME280;49815;51.618;0.336;2022-10-31T01:32:23;100981.32;;;12.59;58.03
63663;BME280;49815;51.618;0.336;2022-10-31T01:34:49;100981.88;;;12.02;58.14
63663;BME280;49815;51.618;0.336;2022-10-31T01:37:14;100983.35;;;12.39;57.79
63663;BME280;49815;51.618;0.336;2022-10-31T01:39:40;100981.79;;;12.42;57.80
63663;BME280;49815;51.618;0.336;2022-10-31T01:42:05;100981.81;;;12.18;58.02
63663;BME280;49815;51.618;0.336;2022-10-31T01:44:49;100983.68;;;12.23;58.31
63663;BME280;49815;51.618;0.336;2022-10-31T01:46:58;100980.50;;;12.00;58.70
63663;BME280;49815;51.618;0.336;2022-10-31T01:49:24;100977.71;;;11.89;58.87
63663;BME280;49815;51.618;0.336;2022-10-31T01:51:51;100979.93;;;11.56;59.91
63663;BME280;49815;51.618;0.336;2022-10-31T01:54:13;100979.46;;;12.06;58.98
63663;BME280;49815;51.618;0.336;2022-10-31T01:56:39;100978.50;;;12.26;58.25
63663;BME280;49815;51.618;0.336;2022-10-31T01:59:02;100978.34;;;12.19;58.31
63663;BME280;49815;51.618;0.336;2022-10-31T02:01:27;100979.40;;;12.43;57.60
63663;BME280;49815;51.618;0.336;2022-10-31T02:03:52;100976.05;;;12.47;57.41
63663;BME280;49815;51.618;0.336;2022-10-31T02:06:26;100975.58;;;12.47;57.32
63663;BME280;49815;51.618;0.336;2022-10-31T02:08:43;100974.66;;;11.81;57.81
63663;BME280;49815;51.618;0.336;2022-10-31T02:11:09;100973.11;;;11.80;58.50
63663;BME280;49815;51.618;0.336;2022-10-31T02:13:35;100973.67;;;11.76;59.29
63663;BME280;49815;51.618;0.336;2022-10-31T02:15:59;100971.84;;;12.25;58.92
63663;BME280;49815;51.618;0.336;2022-10-31T02:18:29;100972.45;;;12.17;58.47
63663;BME280;49815;51.618;0.336;2022-10-31T02:20:58;100972.48;;;11.69;59.60
63663;BME280;49815;51.618;0.336;2022-10-31T02:23:31;100970.60;;;11.78;58.69
63663;BME280;49815;51.618;0.336;2022-10-31T02:25:56;100966.19;;;12.12;58.46
63663;BME280;49815;51.618;0.336;2022-10-31T02:28:21;100964.57;;;12.17;58.48
63663;BME280;49815;51.618;0.336;2022-10-31T02:30:38;100964.49;;;12.16;58.40
63663;BME280;49815;51.618;0.336;2022-10-31T02:33:11;100965.32;;;12.06;58.66
63663;BME280;49815;51.618;0.336;2022-10-31T02:35:32;100962.42;;;11.86;58.71
63663;BME280;49815;51.618;0.336;2022-10-31T02:37:51;100959.37;;;12.56;58.24
63663;BME280;49815;51.618;0.336;2022-10-31T02:40:17;100952.77;;;12.62;58.16
63663;BME280;49815;51.618;0.336;2022-10-31T02:42:44;100951.43;;;12.27;58.52
63663;BME280;49815;51.618;0.336;2022-10-31T02:45:09;100943.90;;;12.16;58.20
63663;BME280;49815;51.618;0.336;2022-10-31T02:47:33;100944.39;;;12.24;58.05
63663;BME280;49815;51.618;0.336;2022-10-31T02:49:58;100941.63;;;12.07;57.75
63663;BME280;49815;51.618;0.336;2022-10-31T02:52:22;100939.67;;;12.17;58.09
63663;BME280;49815;51.618;0.336;2022-10-31T02:54:47;100932.68;;;12.44;58.10
63663;BME280;49815;51.618;0.336;2022-10-31T02:57:12;100926.96;;;12.63;57.63
63663;BME280;49815;51.618;0.336;2022-10-31T02:59:39;100928.15;;;13.16;57.47
63663;BME280;49815;51.618;0.336;2022-10-31T03:02:09;100932.72;;;12.57;57.28
63663;BME280;49815;51.618;0.336;2022-10-31T03:04:36;100937.65;;;12.31;57.44
63663;BME280;49815;51.618;0.336;2022-10-31T03:06:56;100939.08;;;12.42;57.07
63663;BME280;49815;51.618;0.336;2022-10-31T03:09:23;100940.27;;;12.15;57.42
63663;BME280;49815;51.618;0.336;2022-10-31T03:11:46;100939.85;;;12.47;57.22
63663;BME280;49815;51.618;0.336;2022-10-31T03:14:11;100936.23;;;12.73;56.96
63663;BME280;49815;51.618;0.336;2022-10-31T03:16:40;100939.70;;;12.56;57.32
63663;BME280;49815;51.618;0.336;2022-10-31T03:19:03;100936.06;;;12.32;56.94
63663;BME280;49815;51.618;0.336;2022-10-31T03:21:27;100936.02;;;12.16;56.41
63663;BME280;49815;51.618;0.336;2022-10-31T03:23:51;100938.20;;;12.49;56.37
63663;BME280;49815;51.618;0.336;2022-10-31T03:26:16;100937.64;;;12.52;56.54
63663;BME280;49815;51.618;0.336;2022-10-31T03:28:45;100932.33;;;12.70;56.36
63663;BME280;49815;51.618;0.336;2022-10-31T03:31:07;100932.27;;;12.42;56.25
63663;BME280;49815;51.618;0.336;2022-10-31T03:33:35;100929.21;;;12.44;55.95
63663;BME280;49815;51.618;0.336;2022-10-31T03:36:00;100935.18;;;12.69;55.40
63663;BME280;49815;51.618;0.336;2022-10-31T03:38:23;100936.60;;;12.69;55.32
63663;BME280;49815;51.618;0.336;2022-10-31T03:40:48;100935.60;;;11.97;55.20
63663;BME280;49815;51.618;0.336;2022-10-31T03:43:16;100932.37;;;12.45;54.86
63663;BME280;49815;51.618;0.336;2022-10-31T03:45:41;100929.70;;;12.65;54.90
63663;BME280;49815;51.618;0.336;2022-10-31T03:48:04;100928.70;;;12.48;54.56
63663;BME280;49815;51.618;0.336;2022-10-31T03:50:36;100928.12;;;12.54;53.79
63663;BME280;49815;51.618;0.336;2022-10-31T03:52:58;100931.67;;;12.32;54.13
63663;BME280;49815;51.618;0.336;2022-10-31T03:55:25;100932.13;;;12.44;54.32
63663;BME280;49815;51.618;0.336;2022-10-31T03:57:49;100933.87;;;12.62;54.16
63663;BME280;49815;51.618;0.336;2022-10-31T04:00:13;100934.56;;;11.99;54.41
63663;BME280;49815;51.618;0.336;2022-10-31T04:02:40;100933.95;;;12.14;53.76
63663;BME280;49815;51.618;0.336;2022-10-31T04:05:02;100934.31;;;12.37;54.32
63663;BME280;49815;51.618;0.336;2022-10-31T04:07:31;100932.41;;;12.34;54.02
63663;BME280;49815;51.618;0.336;2022-10-31T04:09:53;100932.69;;;12.42;53.31
63663;BME280;49815;51.618;0.336;2022-10-31T04:12:18;100934.03;;;12.13;53.46
63663;BME280;49815;51.618;0.336;2022-10-31T04:14:46;100932.92;;;12.14;53.92
63663;BME280;49815;51.618;0.336;2022-10-31T04:17:12;100931.06;;;11.97;53.80
63663;BME280;49815;51.618;0.336;2022-10-31T04:19:34;100929.47;;;12.00;53.96
63663;BME280;49815;51.618;0.336;2022-10-31T04:21:59;100926.82;;;12.34;54.34
63663;BME280;49815;51.618;0.336;2022-10-31T04:24:24;100926.12;;;12.34;54.98
63663;BME280;49815;51.618;0.336;2022-10-31T04:26:50;100930.22;;;12.58;54.32
63663;BME280;49815;51.618;0.336;2022-10-31T04:29:15;100932.51;;;12.15;54.48
63663;BME280;49815;51.618;0.336;2022-10-31T04:31:40;100934.74;;;12.27;53.91
63663;BME280;49815;51.618;0.336;2022-10-31T04:34:05;100932.72;;;11.94;54.48
63663;BME280;49815;51.618;0.336;2022-10-31T04:36:31;100925.68;;;12.17;54.34
63663;BME280;49815;51.618;0.336;2022-10-31T04:38:56;100920.98;;;12.14;53.62
63663;BME280;49815;51.618;0.336;2022-10-31T04:41:21;100924.79;;;11.87;54.02
63663;BME280;49815;51.618;0.336;2022-10-31T04:43:48;100925.56;;;11.90;54.32
63663;BME280;49815;51.618;0.336;2022-10-31T04:46:13;100922.22;;;11.84;54.89
63663;BME280;49815;51.618;0.336;2022-10-31T04:48:39;100917.33;;;11.92;55.99
63663;BME280;49815;51.618;0.336;2022-10-31T04:51:04;100916.99;;;11.61;55.74
63663;BME280;49815;51.618;0.336;2022-10-31T04:53:30;100914.34;;;11.43;56.29
63663;BME280;49815;51.618;0.336;2022-10-31T04:55:58;100910.15;;;11.55;55.94
63663;BME280;49815;51.618;0.336;2022-10-31T04:58:21;100908.01;;;11.36;56.31
63663;BME280;49815;51.618;0.336;2022-10-31T05:00:46;100908.95;;;11.76;56.23
63663;BME280;49815;51.618;0.336;2022-10-31T05:03:11;100904.04;;;11.69;55.68
63663;BME280;49815;51.618;0.336;2022-10-31T05:05:37;100898.44;;;12.06;55.83
63663;BME280;49815;51.618;0.336;2022-10-31T05:08:02;100892.56;;;12.09;55.67
63663;BME280;49815;51.618;0.336;2022-10-31T05:10:29;100891.55;;;11.91;55.25
63663;BME280;49815;51.618;0.336;2022-10-31T05:12:54;100888.34;;;11.48;55.34
63663;BME280;49815;51.618;0.336;2022-10-31T05:15:19;100886.27;;;12.07;54.14
63663;BME280;49815;51.618;0.336;2022-10-31T05:17:44;100888.57;;;11.45;54.83
63663;BME280;49815;51.618;0.336;2022-10-31T05:20:10;100888.50;;;11.37;55.61
63663;BME280;49815;51.618;0.336;2022-10-31T05:22:35;100885.89;;;11.83;55.34
63663;BME280;49815;51.618;0.336;2022-10-31T05:25:00;100881.82;;;11.76;55.64
63663;BME280;49815;51.618;0.336;2022-10-31T05:27:25;100878.18;;;11.81;55.43
63663;BME280;49815;51.618;0.336;2022-10-31T05:29:51;100880.56;;;11.73;55.46
63663;BME280;49815;51.618;0.336;2022-10-31T05:32:16;100878.08;;;11.36;54.90
63663;BME280;49815;51.618;0.336;2022-10-31T05:34:42;100881.88;;;11.74;55.11
63663;BME280;49815;51.618;0.336;2022-10-31T05:37:07;100879.21;;;11.39;55.18
63663;BME280;49815;51.618;0.336;2022-10-31T05:39:32;100878.31;;;11.44;55.35
63663;BME280;49815;51.618;0.336;2022-10-31T05:41:58;100882.41;;;11.43;54.85
63663;BME280;49815;51.618;0.336;2022-10-31T05:44:24;100884.29;;;11.66;54.74
63663;BME280;49815;51.618;0.336;2022-10-31T05:46:49;100880.64;;;11.20;54.41
63663;BME280;49815;51.618;0.336;2022-10-31T05:49:14;100880.23;;;11.25;53.41
63663;BME280;49815;51.618;0.336;2022-10-31T05:51:39;100879.02;;;11.30;53.46
63663;BME280;49815;51.618;0.336;2022-10-31T05:54:05;100882.19;;;11.55;54.02
63663;BME280;49815;51.618;0.336;2022-10-31T05:56:30;100877.41;;;11.54;53.42
63663;BME280;49815;51.618;0.336;2022-10-31T05:58:56;100873.93;;;11.23;52.83
63663;BME280;49815;51.618;0.336;2022-10-31T06:01:21;100876.52;;;11.40;53.34
63663;BME280;49815;51.618;0.336;2022-10-31T06:03:46;100876.45;;;11.24;53.02
63663;BME280;49815;51.618;0.336;2022-10-31T06:06:12;100876.13;;;11.50;53.34
63663;BME280;49815;51.618;0.336;2022-10-31T06:08:37;100881.17;;;11.59;53.03
63663;BME280;49815;51.618;0.336;2022-10-31T06:11:02;100875.05;;;11.10;53.48
63663;BME280;49815;51.618;0.336;2022-10-31T06:13:28;100869.48;;;11.29;53.73
63663;BME280;49815;51.618;0.336;2022-10-31T06:15:53;100870.18;;;11.45;53.63
63663;BME280;49815;51.618;0.336;2022-10-31T06:18:19;100870.89;;;10.94;54.08
63663;BME280;49815;51.618;0.336;2022-10-31T06:20:44;100869.49;;;11.42;54.63
63663;BME280;49815;51.618;0.336;2022-10-31T06:23:09;100866.08;;;11.29;55.09
63663;BME280;49815;51.618;0.336;2022-10-31T06:25:35;100865.40;;;11.47;55.30
63663;BME280;49815;51.618;0.336;2022-10-31T06:28:00;100864.82;;;11.42;54.99
63663;BME280;49815;51.618;0.336;2022-10-31T06:30:26;100865.37;;;11.25;55.47
63663;BME280;49815;51.618;0.336;2022-10-31T06:32:51;100866.55;;;11.28;55.56
63663;BME280;49815;51.618;0.336;2022-10-31T06:35:16;100866.43;;;11.75;55.28
63663;BME280;49815;51.618;0.336;2022-10-31T06:37:41;100867.78;;;11.61;55.00
63663;BME280;49815;51.618;0.336;2022-10-31T06:40:08;100869.91;;;11.51;55.17
63663;BME280;49815;51.618;0.336;2022-10-31T06:42:32;100869.13;;;11.03;55.39
63663;BME280;49815;51.618;0.336;2022-10-31T06:44:57;100868.21;;;11.43;55.89
63663;BME280;49815;51.618;0.336;2022-10-31T06:47:22;100870.07;;;11.28;56.05
63663;BME280;49815;51.618;0.336;2022-10-31T06:49:48;100869.10;;;11.47;56.21
63663;BME280;49815;51.618;0.336;2022-10-31T06:52:13;100870.07;;;11.48;56.53
63663;BME280;49815;51.618;0.336;2022-10-31T06:54:39;100870.79;;;11.61;56.11
63663;BME280;49815;51.618;0.336;2022-10-31T06:57:04;100868.65;;;11.60;56.08
63663;BME280;49815;51.618;0.336;2022-10-31T06:59:30;100867.12;;;11.60;56.19
63663;BME280;49815;51.618;0.336;2022-10-31T07:01:55;100865.49;;;11.12;56.34
63663;BME280;49815;51.618;0.336;2022-10-31T07:04:20;100864.92;;;11.57;56.69
63663;BME280;49815;51.618;0.336;2022-10-31T07:06:45;100858.56;;;11.58;56.74
63663;BME280;49815;51.618;0.336;2022-10-31T07:09:11;100858.26;;;11.35;57.03
63663;BME280;49815;51.618;0.336;2022-10-31T07:11:36;100860.75;;;11.12;58.35
63663;BME280;49815;51.618;0.336;2022-10-31T07:14:02;100855.87;;;11.23;57.63
63663;BME280;49815;51.618;0.336;2022-10-31T07:16:27;100851.84;;;10.91;58.04
63663;BME280;49815;51.618;0.336;2022-10-31T07:18:52;100850.89;;;11.24;58.38
63663;BME280;49815;51.618;0.336;2022-10-31T07:21:18;100854.36;;;11.51;58.46
63663;BME280;49815;51.618;0.336;2022-10-31T07:23:43;100855.96;;;11.61;58.24
63663;BME280;49815;51.618;0.336;2022-10-31T07:26:10;100855.41;;;11.79;57.62
63663;BME280;49815;51.618;0.336;2022-10-31T07:28:34;100852.31;;;11.77;57.77
63663;BME280;49815;51.618;0.336;2022-10-31T07:30:59;100856.41;;;11.89;57.60
63663;BME280;49815;51.618;0.336;2022-10-31T07:33:25;100853.19;;;11.83;57.49
63663;BME280;49815;51.618;0.336;2022-10-31T07:35:49;100852.96;;;11.90;57.67
63663;BME280;49815;51.618;0.336;2022-10-31T07:38:15;100855.36;;;12.00;57.53
63663;BME280;49815;51.618;0.336;2022-10-31T07:40:56;100856.05;;;12.10;57.80
63663;BME280;49815;51.618;0.336;2022-10-31T07:43:05;100858.54;;;12.38;57.42
63663;BME280;49815;51.618;0.336;2022-10-31T07:45:31;100861.12;;;12.57;57.09
63663;BME280;49815;51.618;0.336;2022-10-31T07:47:56;100858.58;;;12.59;57.06
63663;BME280;49815;51.618;0.336;2022-10-31T07:50:23;100859.58;;;12.74;57.00
63663;BME280;49815;51.618;0.336;2022-10-31T07:52:47;100859.68;;;12.78;56.92
63663;BME280;49815;51.618;0.336;2022-10-31T07:55:12;100857.90;;;12.89;57.16
63663;BME280;49815;51.618;0.336;2022-10-31T07:57:37;100855.94;;;12.98;56.50
63663;BME280;49815;51.618;0.336;2022-10-31T08:00:03;100856.33;;;13.03;56.45
63663;BME280;49815;51.618;0.336;2022-10-31T08:02:28;100855.31;;;13.42;56.69
63663;BME280;49815;51.618;0.336;2022-10-31T08:04:53;100854.65;;;13.29;56.32
63663;BME280;49815;51.618;0.336;2022-10-31T08:07:19;100852.13;;;13.36;56.54
63663;BME280;49815;51.618;0.336;2022-10-31T08:09:44;100849.01;;;13.10;56.84
63663;BME280;49815;51.618;0.336;2022-10-31T08:12:09;100848.74;;;13.28;56.56
63663;BME280;49815;51.618;0.336;2022-10-31T08:14:35;100842.91;;;12.89;56.90
63663;BME280;49815;51.618;0.336;2022-10-31T08:17:00;100835.83;;;13.16;56.53
63663;BME280;49815;51.618;0.336;2022-10-31T08:19:25;100837.64;;;13.35;56.43
63663;BME280;49815;51.618;0.336;2022-10-31T08:21:51;100840.14;;;13.40;57.14
63663;BME280;49815;51.618;0.336;2022-10-31T08:24:16;100841.20;;;13.92;56.78
63663;BME280;49815;51.618;0.336;2022-10-31T08:26:41;100844.20;;;13.16;57.65
63663;BME280;49815;51.618;0.336;2022-10-31T08:29:06;100843.39;;;13.25;57.37
63663;BME280;49815;51.618;0.336;2022-10-31T08:31:32;100837.87;;;13.51;57.73
63663;BME280;49815;51.618;0.336;2022-10-31T08:33:57;100834.43;;;13.55;57.37
63663;BME280;49815;51.618;0.336;2022-10-31T08:36:22;100831.42;;;13.88;56.91
63663;BME280;49815;51.618;0.336;2022-10-31T08:38:48;100832.03;;;14.32;56.61
63663;BME280;49815;51.618;0.336;2022-10-31T08:41:13;100834.06;;;14.25;56.43
63663;BME280;49815;51.618;0.336;2022-10-31T08:43:38;100830.41;;;14.27;56.37
63663;BME280;49815;51.618;0.336;2022-10-31T08:46:04;100823.40;;;14.08;56.06
63663;BME280;49815;51.618;0.336;2022-10-31T08:48:29;100823.02;;;14.30;56.76
63663;BME280;49815;51.618;0.336;2022-10-31T08:50:56;100820.08;;;14.45;56.42
63663;BME280;49815;51.618;0.336;2022-10-31T08:53:20;100820.44;;;14.21;56.02
63663;BME280;49815;51.618;0.336;2022-10-31T08:55:46;100816.54;;;14.30;56.86
63663;BME280;49815;51.618;0.336;2022-10-31T08:58:12;100815.08;;;14.87;56.01
63663;BME280;49815;51.618;0.336;2022-10-31T09:00:36;100814.52;;;14.19;56.46
63663;BME280;49815;51.618;0.336;2022-10-31T09:03:03;100814.39;;;14.86;55.83
63663;BME280;49815;51.618;0.336;2022-10-31T09:05:27;100808.03;;;14.60;56.37
63663;BME280;49815;51.618;0.336;2022-10-31T09:07:55;100803.53;;;14.52;56.35
63663;BME280;49815;51.618;0.336;2022-10-31T09:10:17;100802.45;;;14.35;56.70
63663;BME280;49815;51.618;0.336;2022-10-31T09:12:42;100800.38;;;14.74;56.27
63663;BME280;49815;51.618;0.336;2022-10-31T09:15:08;100799.04;;;14.72;55.83
63663;BME280;49815;51.618;0.336;2022-10-31T09:17:33;100789.75;;;14.63;56.40
63663;BME280;49815;51.618;0.336;2022-10-31T09:19:58;100785.41;;;14.71;56.31
63663;BME280;49815;51.618;0.336;2022-10-31T09:22:24;100781.91;;;14.18;56.27
63663;BME280;49815;51.618;0.336;2022-10-31T09:24:49;100788.09;;;14.31;56.76
63663;BME280;49815;51.618;0.336;2022-10-31T09:27:14;100788.65;;;14.42;56.46
63663;BME280;49815;51.618;0.336;2022-10-31T09:29:40;100789.29;;;14.25;56.75
63663;BME280;49815;51.618;0.336;2022-10-31T09:32:05;100788.08;;;14.30;56.85
63663;BME280;49815;51.618;0.336;2022-10-31T09:34:30;100788.31;;;14.87;55.80
63663;BME280;49815;51.618;0.336;2022-10-31T09:36:55;100786.58;;;14.71;55.79
63663;BME280;49815;51.618;0.336;2022-10-31T09:39:21;100773.55;;;14.92;55.22
63663;BME280;49815;51.618;0.336;2022-10-31T09:41:57;100774.42;;;15.13;55.38
63663;BME280;49815;51.618;0.336;2022-10-31T09:44:18;100769.85;;;15.37;54.47
63663;BME280;49815;51.618;0.336;2022-10-31T09:46:44;100765.81;;;15.52;53.57
63663;BME280;49815;51.618;0.336;2022-10-31T09:51:31;100767.80;;;15.53;54.14
63663;BME280;49815;51.618;0.336;2022-10-31T09:53:56;100759.75;;;15.49;53.54
63663;BME280;49815;51.618;0.336;2022-10-31T09:56:20;100757.87;;;15.66;53.36
63663;BME280;49815;51.618;0.336;2022-10-31T09:58:45;100762.05;;;16.29;52.38
63663;BME280;49815;51.618;0.336;2022-10-31T10:01:17;100758.15;;;15.95;52.46
63663;BME280;49815;51.618;0.336;2022-10-31T10:03:38;100752.21;;;16.32;52.53
63663;BME280;49815;51.618;0.336;2022-10-31T10:06:07;100744.48;;;16.24;52.11
63663;BME280;49815;51.618;0.336;2022-10-31T10:08:28;100749.77;;;16.01;51.82
63663;BME280;49815;51.618;0.336;2022-10-31T10:10:53;100748.33;;;16.48;52.14
63663;BME280;49815;51.618;0.336;2022-10-31T10:13:26;100744.53;;;16.10;51.73
63663;BME280;49815;51.618;0.336;2022-10-31T10:15:55;100740.14;;;17.03;51.10
63663;BME280;49815;51.618;0.336;2022-10-31T10:18:15;100734.66;;;16.59;50.85
63663;BME280;49815;51.618;0.336;2022-10-31T10:20:35;100739.07;;;16.99;50.80
63663;BME280;49815;51.618;0.336;2022-10-31T10:23:13;100740.05;;;17.18;49.40
63663;BME280;49815;51.618;0.336;2022-10-31T10:25:24;100734.17;;;17.22;49.65
63663;BME280;49815;51.618;0.336;2022-10-31T10:27:56;100729.55;;;17.57;50.11
63663;BME280;49815;51.618;0.336;2022-10-31T10:30:16;100729.37;;;17.07;49.53
63663;BME280;49815;51.618;0.336;2022-10-31T10:32:43;100724.86;;;16.94;49.36
63663;BME280;49815;51.618;0.336;2022-10-31T10:35:11;100727.90;;;16.51;49.98
63663;BME280;49815;51.618;0.336;2022-10-31T10:37:31;100723.90;;;16.91;49.37
63663;BME280;49815;51.618;0.336;2022-10-31T10:39:55;100722.27;;;17.02;49.69
63663;BME280;49815;51.618;0.336;2022-10-31T10:42:19;100710.61;;;16.72;50.13
63663;BME280;49815;51.618;0.336;2022-10-31T10:44:47;100702.19;;;17.04;49.72
63663;BME280;49815;51.618;0.336;2022-10-31T10:47:10;100693.80;;;16.61;49.35
63663;BME280;49815;51.618;0.336;2022-10-31T10:49:42;100697.71;;;16.75;49.36
63663;BME280;49815;51.618;0.336;2022-10-31T10:52:05;100698.32;;;16.84;49.35
63663;BME280;49815;51.618;0.336;2022-10-31T10:54:39;100702.36;;;16.35;50.36
63663;BME280;49815;51.618;0.336;2022-10-31T10:56:59;100690.55;;;16.47;50.05
63663;BME280;49815;51.618;0.336;2022-10-31T10:59:19;100689.70;;;16.29;50.27
63663;BME280;49815;51.618;0.336;2022-10-31T11:01:41;100680.74;;;16.79;49.49
63663;BME280;49815;51.618;0.336;2022-10-31T11:06:32;100679.70;;;16.83;49.33
63663;BME280;49815;51.618;0.336;2022-10-31T11:11:25;100679.16;;;16.49;48.49
63663;BME280;49815;51.618;0.336;2022-10-31T11:13:50;100680.49;;;16.44;49.10
63663;BME280;49815;51.618;0.336;2022-10-31T11:16:15;100675.04;;;16.19;49.48
63663;BME280;49815;51.618;0.336;2022-10-31T11:18:42;100669.40;;;16.34;49.98
63663;BME280;49815;51.618;0.336;2022-10-31T11:21:04;100672.87;;;15.96;50.28
63663;BME280;49815;51.618;0.336;2022-10-31T11:23:29;100667.64;;;15.70;50.40
63663;BME280;49815;51.618;0.336;2022-10-31T11:25:56;100669.21;;;16.29;49.68
63663;BME280;49815;51.618;0.336;2022-10-31T11:28:19;100653.73;;;16.49;48.21
63663;BME280;49815;51.618;0.336;2022-10-31T11:30:47;100646.95;;;15.83;49.03
63663;BME280;49815;51.618;0.336;2022-10-31T11:33:16;100647.67;;;16.23;48.99
63663;BME280;49815;51.618;0.336;2022-10-31T11:35:39;100647.68;;;16.48;48.49
63663;BME280;49815;51.618;0.336;2022-10-31T11:38:00;100648.06;;;16.07;49.86
63663;BME280;49815;51.618;0.336;2022-10-31T11:40:26;100637.89;;;16.49;47.96
63663;BME280;49815;51.618;0.336;2022-10-31T11:42:52;100644.06;;;16.12;49.68
63663;BME280;49815;51.618;0.336;2022-10-31T11:45:17;100635.49;;;16.56;48.84
63663;BME280;49815;51.618;0.336;2022-10-31T11:47:43;100630.37;;;16.47;48.19
63663;BME280;49815;51.618;0.336;2022-10-31T11:50:10;100628.20;;;16.44;47.46
63663;BME280;49815;51.618;0.336;2022-10-31T11:52:32;100619.12;;;17.13;46.59
63663;BME280;49815;51.618;0.336;2022-10-31T11:54:58;100619.94;;;16.99;47.06
63663;BME280;49815;51.618;0.336;2022-10-31T11:57:24;100602.42;;;17.43;45.43
63663;BME280;49815;51.618;0.336;2022-10-31T11:59:52;100601.49;;;16.53;45.19
63663;BME280;49815;51.618;0.336;2022-10-31T12:02:17;100591.53;;;16.62;46.07
63663;BME280;49815;51.618;0.336;2022-10-31T12:04:41;100590.86;;;16.80;45.84
63663;BME280;49815;51.618;0.336;2022-10-31T12:07:03;100587.22;;;16.72;46.21
63663;BME280;49815;51.618;0.336;2022-10-31T12:09:29;100575.58;;;17.83;44.98
63663;BME280;49815;51.618;0.336;2022-10-31T12:12:10;100572.01;;;16.90;45.45
63663;BME280;49815;51.618;0.336;2022-10-31T12:14:27;100567.72;;;17.54;45.73
63663;BME280;49815;51.618;0.336;2022-10-31T12:16:48;100569.53;;;17.64;45.15
63663;BME280;49815;51.618;0.336;2022-10-31T12:19:16;100559.65;;;17.57;44.86
63663;BME280;49815;51.618;0.336;2022-10-31T12:21:45;100562.31;;;17.44;44.68
63663;BME280;49815;51.618;0.336;2022-10-31T12:24:07;100555.16;;;17.03;45.15
63663;BME280;49815;51.618;0.336;2022-10-31T12:26:32;100548.86;;;17.08;45.30
63663;BME280;49815;51.618;0.336;2022-10-31T12:29:01;100541.71;;;16.88;45.09
63663;BME280;49815;51.618;0.336;2022-10-31T12:31:28;100534.39;;;16.66;45.15
63663;BME280;49815;51.618;0.336;2022-10-31T12:33:49;100534.80;;;17.05;45.88
63663;BME280;49815;51.618;0.336;2022-10-31T12:36:18;100531.09;;;16.45;46.03
63663;BME280;49815;51.618;0.336;2022-10-31T12:38:42;100523.30;;;16.19;46.16
63663;BME280;49815;51.618;0.336;2022-10-31T12:41:13;100519.26;;;16.15;46.26
63663;BME280;49815;51.618;0.336;2022-10-31T12:43:31;100514.87;;;16.82;45.80
63663;BME280;49815;51.618;0.336;2022-10-31T12:45:52;100504.16;;;16.81;45.07